sensor_id;sensor_type;location;lat;lon;timestamp;P1;durP1;ratioP1;P2;durP2;ratioP2
31732;SDS011;18312;51.486;7.144;2022-11-20T00:01:39;47.90;;;19.10;;
31732;SDS011;18312;51.486;7.144;2022-11-20T00:04:07;44.50;;;17.35;;
31732;SDS011;18312;51.486;7.144;2022-11-20T00:06:36;37.10;;;15.43;;
31732;SDS011;18312;51.486;7.144;2022-11-20T00:09:09;48.17;;;17.55;;
31732;SDS011;18312;51.486;7.144;2022-11-20T00:11:39;48.53;;;17.73;;
31732;SDS011;18312;51.486;7.144;2022-11-20T00:14:11;39.38;;;16.35;;
31732;SDS011;18312;51.486;7.144;2022-11-20T00:16:38;39.15;;;15.75;;
31732;SDS011;18312;51.486;7.144;2022-11-20T00:19:05;37.28;;;15.90;;
31732;SDS011;18312;51.486;7.144;2022-11-20T00:21:33;43.13;;;15.90;;
31732;SDS011;18312;51.486;7.144;2022-11-20T00:24:00;41.92;;;16.30;;
31732;SDS011;18312;51.486;7.144;2022-11-20T00:26:39;42.60;;;16.35;;
31732;SDS011;18312;51.486;7.144;2022-11-20T00:29:08;47.13;;;20.40;;
31732;SDS011;18312;51.486;7.144;2022-11-20T00:31:35;57.30;;;21.83;;
31732;SDS011;18312;51.486;7.144;2022-11-20T00:34:02;49.58;;;20.67;;
31732;SDS011;18312;51.486;7.144;2022-11-20T00:36:32;46.85;;;18.63;;
31732;SDS011;18312;51.486;7.144;2022-11-20T00:39:14;41.60;;;17.38;;
31732;SDS011;18312;51.486;7.144;2022-11-20T00:44:33;49.83;;;17.40;;
31732;SDS011;18312;51.486;7.144;2022-11-20T00:47:14;46.28;;;18.35;;
31732;SDS011;18312;51.486;7.144;2022-11-20T00:49:47;45.88;;;17.95;;
31732;SDS011;18312;51.486;7.144;2022-11-20T00:52:22;47.05;;;18.27;;
31732;SDS011;18312;51.486;7.144;2022-11-20T00:55:43;47.03;;;18.17;;
31732;SDS011;18312;51.486;7.144;2022-11-20T00:58:04;47.30;;;17.42;;
31732;SDS011;18312;51.486;7.144;2022-11-20T01:00:59;50.10;;;18.48;;
31732;SDS011;18312;51.486;7.144;2022-11-20T01:03:57;49.35;;;17.60;;
31732;SDS011;18312;51.486;7.144;2022-11-20T01:06:44;40.97;;;15.77;;
31732;SDS011;18312;51.486;7.144;2022-11-20T01:09:24;41.05;;;16.00;;
31732;SDS011;18312;51.486;7.144;2022-11-20T01:12:03;40.03;;;16.48;;
31732;SDS011;18312;51.486;7.144;2022-11-20T01:15:06;36.83;;;17.15;;
31732;SDS011;18312;51.486;7.144;2022-11-20T01:17:53;42.05;;;18.20;;
31732;SDS011;18312;51.486;7.144;2022-11-20T01:20:42;44.35;;;15.60;;
31732;SDS011;18312;51.486;7.144;2022-11-20T01:23:19;55.22;;;17.58;;
31732;SDS011;18312;51.486;7.144;2022-11-20T01:26:03;47.15;;;16.73;;
31732;SDS011;18312;51.486;7.144;2022-11-20T01:31:25;43.65;;;17.90;;
31732;SDS011;18312;51.486;7.144;2022-11-20T01:34:12;47.45;;;18.05;;
31732;SDS011;18312;51.486;7.144;2022-11-20T01:36:43;57.50;;;19.58;;
31732;SDS011;18312;51.486;7.144;2022-11-20T01:39:15;47.00;;;18.73;;
31732;SDS011;18312;51.486;7.144;2022-11-20T01:41:48;51.05;;;19.08;;
31732;SDS011;18312;51.486;7.144;2022-11-20T01:44:45;41.55;;;17.85;;
31732;SDS011;18312;51.486;7.144;2022-11-20T01:47:28;53.95;;;17.83;;
31732;SDS011;18312;51.486;7.144;2022-11-20T01:50:05;50.67;;;18.52;;
31732;SDS011;18312;51.486;7.144;2022-11-20T01:52:43;43.90;;;17.75;;
31732;SDS011;18312;51.486;7.144;2022-11-20T01:55:15;44.10;;;16.70;;
31732;SDS011;18312;51.486;7.144;2022-11-20T01:57:55;42.45;;;16.95;;
31732;SDS011;18312;51.486;7.144;2022-11-20T02:00:25;45.25;;;17.83;;
31732;SDS011;18312;51.486;7.144;2022-11-20T02:02:56;41.38;;;17.98;;
31732;SDS011;18312;51.486;7.144;2022-11-20T02:05:34;47.70;;;17.33;;
31732;SDS011;18312;51.486;7.144;2022-11-20T02:08:10;52.35;;;20.08;;
31732;SDS011;18312;51.486;7.144;2022-11-20T02:11:06;40.63;;;17.38;;
31732;SDS011;18312;51.486;7.144;2022-11-20T02:13:52;58.78;;;19.15;;
31732;SDS011;18312;51.486;7.144;2022-11-20T02:16:22;51.70;;;18.67;;
31732;SDS011;18312;51.486;7.144;2022-11-20T02:18:58;46.50;;;16.70;;
31732;SDS011;18312;51.486;7.144;2022-11-20T02:21:49;46.05;;;17.40;;
31732;SDS011;18312;51.486;7.144;2022-11-20T02:24:28;46.35;;;17.05;;
31732;SDS011;18312;51.486;7.144;2022-11-20T02:27:05;41.03;;;16.38;;
31732;SDS011;18312;51.486;7.144;2022-11-20T02:29:38;47.80;;;17.65;;
31732;SDS011;18312;51.486;7.144;2022-11-20T02:32:17;41.92;;;17.55;;
31732;SDS011;18312;51.486;7.144;2022-11-20T02:34:52;45.95;;;17.73;;
31732;SDS011;18312;51.486;7.144;2022-11-20T02:37:24;45.97;;;17.77;;
31732;SDS011;18312;51.486;7.144;2022-11-20T02:40:07;50.33;;;18.27;;
31732;SDS011;18312;51.486;7.144;2022-11-20T02:46:06;53.17;;;17.15;;
31732;SDS011;18312;51.486;7.144;2022-11-20T02:48:34;51.90;;;17.55;;
31732;SDS011;18312;51.486;7.144;2022-11-20T02:51:03;51.78;;;18.33;;
31732;SDS011;18312;51.486;7.144;2022-11-20T02:53:33;50.85;;;18.25;;
31732;SDS011;18312;51.486;7.144;2022-11-20T02:56:12;46.88;;;19.23;;
31732;SDS011;18312;51.486;7.144;2022-11-20T02:58:43;52.25;;;19.52;;
31732;SDS011;18312;51.486;7.144;2022-11-20T03:01:11;46.15;;;18.02;;
31732;SDS011;18312;51.486;7.144;2022-11-20T03:03:39;41.75;;;16.58;;
31732;SDS011;18312;51.486;7.144;2022-11-20T03:06:17;47.95;;;18.23;;
31732;SDS011;18312;51.486;7.144;2022-11-20T03:08:47;43.00;;;18.35;;
31732;SDS011;18312;51.486;7.144;2022-11-20T03:11:16;56.33;;;19.67;;
31732;SDS011;18312;51.486;7.144;2022-11-20T03:13:46;52.28;;;18.58;;
31732;SDS011;18312;51.486;7.144;2022-11-20T03:16:16;40.40;;;16.33;;
31732;SDS011;18312;51.486;7.144;2022-11-20T03:18:47;46.53;;;17.65;;
31732;SDS011;18312;51.486;7.144;2022-11-20T03:21:20;50.40;;;18.98;;
31732;SDS011;18312;51.486;7.144;2022-11-20T03:23:50;46.90;;;18.17;;
31732;SDS011;18312;51.486;7.144;2022-11-20T03:26:19;48.92;;;18.42;;
31732;SDS011;18312;51.486;7.144;2022-11-20T03:28:48;44.08;;;18.23;;
31732;SDS011;18312;51.486;7.144;2022-11-20T03:31:19;44.88;;;18.63;;
31732;SDS011;18312;51.486;7.144;2022-11-20T03:33:48;43.90;;;18.58;;
31732;SDS011;18312;51.486;7.144;2022-11-20T03:36:17;44.35;;;16.50;;
31732;SDS011;18312;51.486;7.144;2022-11-20T03:38:45;43.55;;;17.23;;
31732;SDS011;18312;51.486;7.144;2022-11-20T03:41:13;49.92;;;18.27;;
31732;SDS011;18312;51.486;7.144;2022-11-20T03:43:48;42.67;;;17.10;;
31732;SDS011;18312;51.486;7.144;2022-11-20T03:46:16;46.90;;;17.42;;
31732;SDS011;18312;51.486;7.144;2022-11-20T03:48:43;34.28;;;15.45;;
31732;SDS011;18312;51.486;7.144;2022-11-20T03:51:14;44.95;;;17.80;;
31732;SDS011;18312;51.486;7.144;2022-11-20T03:53:43;46.60;;;16.17;;
31732;SDS011;18312;51.486;7.144;2022-11-20T03:56:12;44.65;;;15.18;;
31732;SDS011;18312;51.486;7.144;2022-11-20T03:58:42;43.55;;;16.85;;
31732;SDS011;18312;51.486;7.144;2022-11-20T04:01:13;45.22;;;17.35;;
31732;SDS011;18312;51.486;7.144;2022-11-20T04:03:41;44.47;;;18.05;;
31732;SDS011;18312;51.486;7.144;2022-11-20T04:06:11;37.65;;;16.17;;
31732;SDS011;18312;51.486;7.144;2022-11-20T04:08:40;44.22;;;18.33;;
31732;SDS011;18312;51.486;7.144;2022-11-20T04:11:08;46.17;;;16.45;;
31732;SDS011;18312;51.486;7.144;2022-11-20T04:13:38;44.33;;;16.48;;
31732;SDS011;18312;51.486;7.144;2022-11-20T04:16:07;40.65;;;16.40;;
31732;SDS011;18312;51.486;7.144;2022-11-20T04:18:36;38.30;;;16.35;;
31732;SDS011;18312;51.486;7.144;2022-11-20T04:21:06;40.05;;;15.82;;
31732;SDS011;18312;51.486;7.144;2022-11-20T04:23:37;41.35;;;15.77;;
31732;SDS011;18312;51.486;7.144;2022-11-20T04:26:08;30.05;;;11.60;;
31732;SDS011;18312;51.486;7.144;2022-11-20T04:28:39;35.30;;;16.17;;
31732;SDS011;18312;51.486;7.144;2022-11-20T04:31:07;41.88;;;16.63;;
31732;SDS011;18312;51.486;7.144;2022-11-20T04:33:38;35.75;;;16.08;;
31732;SDS011;18312;51.486;7.144;2022-11-20T04:36:07;38.40;;;16.02;;
31732;SDS011;18312;51.486;7.144;2022-11-20T04:38:39;38.22;;;16.42;;
31732;SDS011;18312;51.486;7.144;2022-11-20T04:41:08;40.25;;;16.08;;
31732;SDS011;18312;51.486;7.144;2022-11-20T04:43:46;43.53;;;15.88;;
31732;SDS011;18312;51.486;7.144;2022-11-20T04:46:14;34.53;;;15.52;;
31732;SDS011;18312;51.486;7.144;2022-11-20T04:48:44;46.25;;;16.13;;
31732;SDS011;18312;51.486;7.144;2022-11-20T04:51:11;32.13;;;13.52;;
31732;SDS011;18312;51.486;7.144;2022-11-20T04:53:40;40.53;;;16.90;;
31732;SDS011;18312;51.486;7.144;2022-11-20T04:56:08;44.03;;;16.75;;
31732;SDS011;18312;51.486;7.144;2022-11-20T05:01:13;39.22;;;17.05;;
31732;SDS011;18312;51.486;7.144;2022-11-20T05:03:44;36.72;;;15.85;;
31732;SDS011;18312;51.486;7.144;2022-11-20T05:06:13;39.40;;;16.77;;
31732;SDS011;18312;51.486;7.144;2022-11-20T05:08:42;42.85;;;16.00;;
31732;SDS011;18312;51.486;7.144;2022-11-20T05:11:12;43.45;;;16.45;;
31732;SDS011;18312;51.486;7.144;2022-11-20T05:13:49;35.95;;;16.48;;
31732;SDS011;18312;51.486;7.144;2022-11-20T05:16:17;42.92;;;16.55;;
31732;SDS011;18312;51.486;7.144;2022-11-20T05:18:49;34.00;;;17.27;;
31732;SDS011;18312;51.486;7.144;2022-11-20T05:21:17;42.60;;;16.42;;
31732;SDS011;18312;51.486;7.144;2022-11-20T05:23:45;45.45;;;17.55;;
31732;SDS011;18312;51.486;7.144;2022-11-20T05:26:17;45.63;;;17.38;;
31732;SDS011;18312;51.486;7.144;2022-11-20T05:28:50;36.65;;;15.50;;
31732;SDS011;18312;51.486;7.144;2022-11-20T05:34:06;37.20;;;15.40;;
31732;SDS011;18312;51.486;7.144;2022-11-20T05:36:35;29.33;;;11.63;;
31732;SDS011;18312;51.486;7.144;2022-11-20T05:39:04;25.90;;;10.90;;
31732;SDS011;18312;51.486;7.144;2022-11-20T05:41:32;40.95;;;16.77;;
31732;SDS011;18312;51.486;7.144;2022-11-20T05:43:59;41.30;;;17.02;;
31732;SDS011;18312;51.486;7.144;2022-11-20T05:46:28;39.97;;;16.70;;
31732;SDS011;18312;51.486;7.144;2022-11-20T05:48:57;39.30;;;16.30;;
31732;SDS011;18312;51.486;7.144;2022-11-20T05:51:27;37.58;;;17.65;;
31732;SDS011;18312;51.486;7.144;2022-11-20T05:53:58;44.25;;;18.02;;
31732;SDS011;18312;51.486;7.144;2022-11-20T05:56:25;39.30;;;15.15;;
31732;SDS011;18312;51.486;7.144;2022-11-20T05:58:52;42.47;;;17.45;;
31732;SDS011;18312;51.486;7.144;2022-11-20T06:01:21;38.33;;;15.07;;
31732;SDS011;18312;51.486;7.144;2022-11-20T06:03:55;38.83;;;18.10;;
31732;SDS011;18312;51.486;7.144;2022-11-20T06:06:24;39.38;;;16.55;;
31732;SDS011;18312;51.486;7.144;2022-11-20T06:08:53;38.17;;;16.25;;
31732;SDS011;18312;51.486;7.144;2022-11-20T06:11:24;40.75;;;17.35;;
31732;SDS011;18312;51.486;7.144;2022-11-20T06:13:52;42.15;;;16.75;;
31732;SDS011;18312;51.486;7.144;2022-11-20T06:16:20;47.55;;;15.55;;
31732;SDS011;18312;51.486;7.144;2022-11-20T06:18:47;38.30;;;17.15;;
31732;SDS011;18312;51.486;7.144;2022-11-20T06:21:18;33.17;;;16.70;;
31732;SDS011;18312;51.486;7.144;2022-11-20T06:23:47;45.25;;;16.70;;
31732;SDS011;18312;51.486;7.144;2022-11-20T06:26:16;47.63;;;18.10;;
31732;SDS011;18312;51.486;7.144;2022-11-20T06:31:51;41.92;;;17.83;;
31732;SDS011;18312;51.486;7.144;2022-11-20T06:34:17;36.38;;;15.68;;
31732;SDS011;18312;51.486;7.144;2022-11-20T06:36:46;41.78;;;16.80;;
31732;SDS011;18312;51.486;7.144;2022-11-20T06:39:14;41.38;;;16.48;;
31732;SDS011;18312;51.486;7.144;2022-11-20T06:41:40;47.38;;;17.02;;
31732;SDS011;18312;51.486;7.144;2022-11-20T06:44:08;44.03;;;19.05;;
31732;SDS011;18312;51.486;7.144;2022-11-20T06:46:36;39.95;;;18.00;;
31732;SDS011;18312;51.486;7.144;2022-11-20T06:49:03;41.95;;;16.75;;
31732;SDS011;18312;51.486;7.144;2022-11-20T06:51:30;42.58;;;18.20;;
31732;SDS011;18312;51.486;7.144;2022-11-20T06:53:59;40.58;;;17.40;;
31732;SDS011;18312;51.486;7.144;2022-11-20T06:56:26;39.30;;;17.88;;
31732;SDS011;18312;51.486;7.144;2022-11-20T07:01:23;47.25;;;17.27;;
31732;SDS011;18312;51.486;7.144;2022-11-20T07:03:50;45.25;;;18.10;;
31732;SDS011;18312;51.486;7.144;2022-11-20T07:06:17;51.63;;;20.42;;
31732;SDS011;18312;51.486;7.144;2022-11-20T07:08:44;41.97;;;18.60;;
31732;SDS011;18312;51.486;7.144;2022-11-20T07:11:13;45.47;;;19.33;;
31732;SDS011;18312;51.486;7.144;2022-11-20T07:13:40;43.10;;;19.17;;
31732;SDS011;18312;51.486;7.144;2022-11-20T07:16:07;47.38;;;16.83;;
31732;SDS011;18312;51.486;7.144;2022-11-20T07:18:35;47.92;;;19.02;;
31732;SDS011;18312;51.486;7.144;2022-11-20T07:21:02;42.80;;;17.80;;
31732;SDS011;18312;51.486;7.144;2022-11-20T07:23:30;41.78;;;18.48;;
31732;SDS011;18312;51.486;7.144;2022-11-20T07:25:57;46.88;;;18.23;;
31732;SDS011;18312;51.486;7.144;2022-11-20T07:28:29;40.78;;;16.17;;
31732;SDS011;18312;51.486;7.144;2022-11-20T07:30:56;49.40;;;19.30;;
31732;SDS011;18312;51.486;7.144;2022-11-20T07:33:24;48.85;;;19.38;;
31732;SDS011;18312;51.486;7.144;2022-11-20T07:35:50;49.08;;;20.00;;
31732;SDS011;18312;51.486;7.144;2022-11-20T07:38:17;57.75;;;21.80;;
31732;SDS011;18312;51.486;7.144;2022-11-20T07:40:44;42.17;;;17.70;;
31732;SDS011;18312;51.486;7.144;2022-11-20T07:43:11;49.63;;;18.25;;
31732;SDS011;18312;51.486;7.144;2022-11-20T07:45:40;49.40;;;18.85;;
31732;SDS011;18312;51.486;7.144;2022-11-20T07:48:07;44.80;;;18.25;;
31732;SDS011;18312;51.486;7.144;2022-11-20T07:50:34;39.33;;;17.42;;
31732;SDS011;18312;51.486;7.144;2022-11-20T07:53:01;44.97;;;17.40;;
31732;SDS011;18312;51.486;7.144;2022-11-20T07:55:29;53.10;;;18.38;;
31732;SDS011;18312;51.486;7.144;2022-11-20T07:57:57;49.47;;;19.00;;
31732;SDS011;18312;51.486;7.144;2022-11-20T08:00:26;57.13;;;21.20;;
31732;SDS011;18312;51.486;7.144;2022-11-20T08:02:55;57.53;;;21.65;;
31732;SDS011;18312;51.486;7.144;2022-11-20T08:05:22;63.85;;;25.35;;
31732;SDS011;18312;51.486;7.144;2022-11-20T08:07:49;63.28;;;24.70;;
31732;SDS011;18312;51.486;7.144;2022-11-20T08:10:16;52.25;;;22.08;;
31732;SDS011;18312;51.486;7.144;2022-11-20T08:12:44;51.00;;;21.83;;
31732;SDS011;18312;51.486;7.144;2022-11-20T08:15:30;78.85;;;27.33;;
31732;SDS011;18312;51.486;7.144;2022-11-20T08:18:03;75.05;;;29.15;;
31732;SDS011;18312;51.486;7.144;2022-11-20T08:20:31;65.57;;;26.65;;
31732;SDS011;18312;51.486;7.144;2022-11-20T08:22:59;66.72;;;23.70;;
31732;SDS011;18312;51.486;7.144;2022-11-20T08:25:28;67.50;;;25.27;;
31732;SDS011;18312;51.486;7.144;2022-11-20T08:27:56;52.10;;;22.50;;
31732;SDS011;18312;51.486;7.144;2022-11-20T08:30:24;55.72;;;24.73;;
31732;SDS011;18312;51.486;7.144;2022-11-20T08:32:52;57.22;;;25.55;;
31732;SDS011;18312;51.486;7.144;2022-11-20T08:35:28;59.50;;;24.80;;
31732;SDS011;18312;51.486;7.144;2022-11-20T08:38:00;60.45;;;24.70;;
31732;SDS011;18312;51.486;7.144;2022-11-20T08:40:27;62.17;;;25.65;;
31732;SDS011;18312;51.486;7.144;2022-11-20T08:42:54;62.85;;;26.27;;
31732;SDS011;18312;51.486;7.144;2022-11-20T08:45:21;65.15;;;27.27;;
31732;SDS011;18312;51.486;7.144;2022-11-20T08:47:48;86.25;;;36.55;;
31732;SDS011;18312;51.486;7.144;2022-11-20T08:50:15;82.57;;;32.53;;
31732;SDS011;18312;51.486;7.144;2022-11-20T08:52:45;72.38;;;29.23;;
31732;SDS011;18312;51.486;7.144;2022-11-20T08:55:12;70.65;;;28.00;;
31732;SDS011;18312;51.486;7.144;2022-11-20T08:57:39;72.50;;;30.00;;
31732;SDS011;18312;51.486;7.144;2022-11-20T09:00:06;61.83;;;29.35;;
31732;SDS011;18312;51.486;7.144;2022-11-20T09:02:35;67.97;;;27.33;;
31732;SDS011;18312;51.486;7.144;2022-11-20T09:05:07;66.75;;;27.48;;
31732;SDS011;18312;51.486;7.144;2022-11-20T09:07:48;70.72;;;27.73;;
31732;SDS011;18312;51.486;7.144;2022-11-20T09:22:02;60.65;;;24.60;;
31732;SDS011;18312;51.486;7.144;2022-11-20T10:12:02;42.45;;;15.43;;
31732;SDS011;18312;51.486;7.144;2022-11-20T10:14:57;32.55;;;13.05;;
31732;SDS011;18312;51.486;7.144;2022-11-20T10:20:40;34.10;;;13.00;;
31732;SDS011;18312;51.486;7.144;2022-11-20T10:23:30;25.33;;;11.73;;
31732;SDS011;18312;51.486;7.144;2022-11-20T10:26:38;33.13;;;12.43;;
31732;SDS011;18312;51.486;7.144;2022-11-20T10:29:35;30.08;;;11.90;;
31732;SDS011;18312;51.486;7.144;2022-11-20T10:39:18;28.13;;;11.88;;
31732;SDS011;18312;51.486;7.144;2022-11-20T11:00:22;18.80;;;7.88;;
31732;SDS011;18312;51.486;7.144;2022-11-20T11:03:45;18.60;;;8.20;;
31732;SDS011;18312;51.486;7.144;2022-11-20T11:07:25;18.80;;;7.85;;
31732;SDS011;18312;51.486;7.144;2022-11-20T11:45:35;18.98;;;7.85;;
31732;SDS011;18312;51.486;7.144;2022-11-20T11:51:52;19.92;;;9.13;;
31732;SDS011;18312;51.486;7.144;2022-11-20T11:54:50;14.48;;;7.30;;
31732;SDS011;18312;51.486;7.144;2022-11-20T11:57:26;17.27;;;7.50;;
31732;SDS011;18312;51.486;7.144;2022-11-20T12:00:03;19.42;;;8.57;;
31732;SDS011;18312;51.486;7.144;2022-11-20T12:02:34;18.50;;;8.05;;
31732;SDS011;18312;51.486;7.144;2022-11-20T12:05:08;23.10;;;9.30;;
31732;SDS011;18312;51.486;7.144;2022-11-20T12:07:43;16.80;;;7.40;;
31732;SDS011;18312;51.486;7.144;2022-11-20T12:10:17;18.10;;;8.95;;
31732;SDS011;18312;51.486;7.144;2022-11-20T12:12:50;19.15;;;8.18;;
31732;SDS011;18312;51.486;7.144;2022-11-20T12:15:25;20.08;;;9.10;;
31732;SDS011;18312;51.486;7.144;2022-11-20T12:17:55;24.63;;;9.20;;
31732;SDS011;18312;51.486;7.144;2022-11-20T12:20:24;20.63;;;8.93;;
31732;SDS011;18312;51.486;7.144;2022-11-20T12:22:54;20.33;;;8.55;;
31732;SDS011;18312;51.486;7.144;2022-11-20T12:25:28;18.48;;;8.52;;
31732;SDS011;18312;51.486;7.144;2022-11-20T12:28:17;18.58;;;8.73;;
31732;SDS011;18312;51.486;7.144;2022-11-20T12:30:58;21.00;;;9.40;;
31732;SDS011;18312;51.486;7.144;2022-11-20T12:33:47;21.25;;;9.32;;
31732;SDS011;18312;51.486;7.144;2022-11-20T12:36:37;24.63;;;10.52;;
31732;SDS011;18312;51.486;7.144;2022-11-20T12:39:13;21.60;;;8.95;;
31732;SDS011;18312;51.486;7.144;2022-11-20T12:42:10;25.50;;;10.52;;
31732;SDS011;18312;51.486;7.144;2022-11-20T12:45:29;25.15;;;9.93;;
31732;SDS011;18312;51.486;7.144;2022-11-20T12:48:14;22.80;;;9.52;;
31732;SDS011;18312;51.486;7.144;2022-11-20T12:51:04;21.38;;;8.50;;
31732;SDS011;18312;51.486;7.144;2022-11-20T12:53:45;24.98;;;9.73;;
31732;SDS011;18312;51.486;7.144;2022-11-20T12:56:28;24.65;;;9.13;;
31732;SDS011;18312;51.486;7.144;2022-11-20T12:59:07;23.45;;;8.55;;
31732;SDS011;18312;51.486;7.144;2022-11-20T13:01:49;22.67;;;9.88;;
31732;SDS011;18312;51.486;7.144;2022-11-20T13:04:27;21.77;;;9.85;;
31732;SDS011;18312;51.486;7.144;2022-11-20T13:07:11;20.55;;;7.95;;
31732;SDS011;18312;51.486;7.144;2022-11-20T13:09:42;25.70;;;10.60;;
31732;SDS011;18312;51.486;7.144;2022-11-20T13:12:18;27.00;;;11.63;;
31732;SDS011;18312;51.486;7.144;2022-11-20T13:14:52;27.17;;;11.05;;
31732;SDS011;18312;51.486;7.144;2022-11-20T13:17:24;27.67;;;11.00;;
31732;SDS011;18312;51.486;7.144;2022-11-20T13:20:00;23.27;;;10.35;;
31732;SDS011;18312;51.486;7.144;2022-11-20T13:22:42;31.20;;;12.05;;
31732;SDS011;18312;51.486;7.144;2022-11-20T13:25:21;21.27;;;9.82;;
31732;SDS011;18312;51.486;7.144;2022-11-20T13:27:50;24.38;;;9.27;;
31732;SDS011;18312;51.486;7.144;2022-11-20T13:30:18;22.10;;;9.93;;
31732;SDS011;18312;51.486;7.144;2022-11-20T13:32:50;29.48;;;9.95;;
31732;SDS011;18312;51.486;7.144;2022-11-20T13:35:27;29.42;;;10.18;;
31732;SDS011;18312;51.486;7.144;2022-11-20T13:38:00;31.60;;;11.07;;
31732;SDS011;18312;51.486;7.144;2022-11-20T13:40:28;24.42;;;10.10;;
31732;SDS011;18312;51.486;7.144;2022-11-20T13:43:00;18.52;;;8.52;;
31732;SDS011;18312;51.486;7.144;2022-11-20T13:45:30;25.55;;;11.15;;
31732;SDS011;18312;51.486;7.144;2022-11-20T13:47:59;25.15;;;11.45;;
31732;SDS011;18312;51.486;7.144;2022-11-20T13:53:25;25.70;;;10.75;;
31732;SDS011;18312;51.486;7.144;2022-11-20T13:56:05;23.45;;;9.93;;
31732;SDS011;18312;51.486;7.144;2022-11-20T13:58:44;26.13;;;9.55;;
31732;SDS011;18312;51.486;7.144;2022-11-20T14:01:19;23.45;;;9.70;;
31732;SDS011;18312;51.486;7.144;2022-11-20T14:03:49;21.45;;;10.00;;
31732;SDS011;18312;51.486;7.144;2022-11-20T14:06:25;22.10;;;9.43;;
31732;SDS011;18312;51.486;7.144;2022-11-20T14:08:54;23.67;;;10.60;;
31732;SDS011;18312;51.486;7.144;2022-11-20T14:11:22;24.90;;;10.13;;
31732;SDS011;18312;51.486;7.144;2022-11-20T14:14:00;24.73;;;10.23;;
31732;SDS011;18312;51.486;7.144;2022-11-20T14:16:29;25.38;;;10.73;;
31732;SDS011;18312;51.486;7.144;2022-11-20T14:22:06;26.83;;;11.90;;
31732;SDS011;18312;51.486;7.144;2022-11-20T14:24:34;23.67;;;10.35;;
31732;SDS011;18312;51.486;7.144;2022-11-20T14:27:01;28.85;;;11.35;;
31732;SDS011;18312;51.486;7.144;2022-11-20T14:29:33;22.88;;;10.77;;
31732;SDS011;18312;51.486;7.144;2022-11-20T14:32:01;29.70;;;12.40;;
31732;SDS011;18312;51.486;7.144;2022-11-20T14:34:30;30.65;;;11.98;;
31732;SDS011;18312;51.486;7.144;2022-11-20T14:37:00;27.40;;;10.70;;
31732;SDS011;18312;51.486;7.144;2022-11-20T14:39:30;25.42;;;10.77;;
31732;SDS011;18312;51.486;7.144;2022-11-20T14:42:00;24.55;;;10.50;;
31732;SDS011;18312;51.486;7.144;2022-11-20T14:44:27;28.15;;;11.57;;
31732;SDS011;18312;51.486;7.144;2022-11-20T14:46:57;24.20;;;11.40;;
31732;SDS011;18312;51.486;7.144;2022-11-20T14:49:26;30.63;;;11.57;;
31732;SDS011;18312;51.486;7.144;2022-11-20T14:54:43;33.33;;;12.13;;
31732;SDS011;18312;51.486;7.144;2022-11-20T14:57:20;32.15;;;12.85;;
31732;SDS011;18312;51.486;7.144;2022-11-20T14:59:49;28.50;;;11.73;;
31732;SDS011;18312;51.486;7.144;2022-11-20T15:02:15;32.83;;;12.52;;
31732;SDS011;18312;51.486;7.144;2022-11-20T15:04:46;32.10;;;12.60;;
31732;SDS011;18312;51.486;7.144;2022-11-20T15:07:24;41.75;;;13.63;;
31732;SDS011;18312;51.486;7.144;2022-11-20T15:10:00;36.17;;;13.30;;
31732;SDS011;18312;51.486;7.144;2022-11-20T15:12:28;33.65;;;12.52;;
31732;SDS011;18312;51.486;7.144;2022-11-20T15:14:59;29.13;;;11.80;;
31732;SDS011;18312;51.486;7.144;2022-11-20T15:20:01;30.58;;;12.25;;
31732;SDS011;18312;51.486;7.144;2022-11-20T15:22:33;30.90;;;12.75;;
31732;SDS011;18312;51.486;7.144;2022-11-20T15:25:00;32.67;;;13.23;;
31732;SDS011;18312;51.486;7.144;2022-11-20T15:27:28;35.47;;;13.45;;
31732;SDS011;18312;51.486;7.144;2022-11-20T15:29:58;39.70;;;12.85;;
31732;SDS011;18312;51.486;7.144;2022-11-20T15:32:55;31.13;;;12.65;;
31732;SDS011;18312;51.486;7.144;2022-11-20T15:35:22;35.63;;;14.05;;
31732;SDS011;18312;51.486;7.144;2022-11-20T15:37:51;33.53;;;12.25;;
31732;SDS011;18312;51.486;7.144;2022-11-20T15:40:18;36.90;;;13.70;;
31732;SDS011;18312;51.486;7.144;2022-11-20T15:42:45;31.02;;;13.57;;
31732;SDS011;18312;51.486;7.144;2022-11-20T15:45:26;40.55;;;14.38;;
31732;SDS011;18312;51.486;7.144;2022-11-20T15:50:34;32.28;;;11.65;;
31732;SDS011;18312;51.486;7.144;2022-11-20T15:55:55;34.75;;;14.57;;
31732;SDS011;18312;51.486;7.144;2022-11-20T15:58:23;34.30;;;13.15;;
31732;SDS011;18312;51.486;7.144;2022-11-20T16:00:50;43.78;;;14.75;;
31732;SDS011;18312;51.486;7.144;2022-11-20T16:03:17;38.25;;;14.77;;
31732;SDS011;18312;51.486;7.144;2022-11-20T16:05:44;34.55;;;12.88;;
31732;SDS011;18312;51.486;7.144;2022-11-20T16:08:12;43.15;;;15.73;;
31732;SDS011;18312;51.486;7.144;2022-11-20T16:10:57;39.45;;;15.40;;
31732;SDS011;18312;51.486;7.144;2022-11-20T16:13:37;38.92;;;13.70;;
31732;SDS011;18312;51.486;7.144;2022-11-20T16:16:22;36.35;;;15.20;;
31732;SDS011;18312;51.486;7.144;2022-11-20T16:18:53;38.58;;;14.55;;
31732;SDS011;18312;51.486;7.144;2022-11-20T16:21:20;41.05;;;14.77;;
31732;SDS011;18312;51.486;7.144;2022-11-20T16:23:52;46.63;;;15.88;;
31732;SDS011;18312;51.486;7.144;2022-11-20T16:26:21;39.72;;;15.75;;
31732;SDS011;18312;51.486;7.144;2022-11-20T16:28:49;51.45;;;17.52;;
31732;SDS011;18312;51.486;7.144;2022-11-20T16:31:17;47.53;;;16.95;;
31732;SDS011;18312;51.486;7.144;2022-11-20T16:33:48;46.30;;;16.85;;
31732;SDS011;18312;51.486;7.144;2022-11-20T16:36:29;52.80;;;19.38;;
31732;SDS011;18312;51.486;7.144;2022-11-20T16:38:57;47.78;;;18.70;;
31732;SDS011;18312;51.486;7.144;2022-11-20T16:41:29;48.55;;;18.10;;
31732;SDS011;18312;51.486;7.144;2022-11-20T16:43:58;60.63;;;19.27;;
31732;SDS011;18312;51.486;7.144;2022-11-20T16:46:28;40.60;;;15.90;;
31732;SDS011;18312;51.486;7.144;2022-11-20T16:51:26;47.30;;;17.42;;
31732;SDS011;18312;51.486;7.144;2022-11-20T16:53:56;48.45;;;17.45;;
31732;SDS011;18312;51.486;7.144;2022-11-20T16:56:34;59.75;;;20.83;;
31732;SDS011;18312;51.486;7.144;2022-11-20T17:33:57;64.82;;;23.48;;
31732;SDS011;18312;51.486;7.144;2022-11-20T17:36:33;80.45;;;24.67;;
31732;SDS011;18312;51.486;7.144;2022-11-20T17:39:28;67.70;;;21.17;;
31732;SDS011;18312;51.486;7.144;2022-11-20T17:42:21;62.55;;;21.25;;
31732;SDS011;18312;51.486;7.144;2022-11-20T17:44:54;62.20;;;22.55;;
31732;SDS011;18312;51.486;7.144;2022-11-20T17:49:48;69.85;;;22.88;;
31732;SDS011;18312;51.486;7.144;2022-11-20T17:51:07;60.17;;;21.20;;
31732;SDS011;18312;51.486;7.144;2022-11-20T17:53:37;66.25;;;20.80;;
31732;SDS011;18312;51.486;7.144;2022-11-20T18:02:48;52.30;;;17.17;;
31732;SDS011;18312;51.486;7.144;2022-11-20T18:05:15;45.70;;;16.10;;
31732;SDS011;18312;51.486;7.144;2022-11-20T18:07:55;43.13;;;15.02;;
31732;SDS011;18312;51.486;7.144;2022-11-20T18:10:24;47.05;;;15.38;;
31732;SDS011;18312;51.486;7.144;2022-11-20T18:13:29;45.03;;;15.52;;
31732;SDS011;18312;51.486;7.144;2022-11-20T18:16:17;44.17;;;15.02;;
31732;SDS011;18312;51.486;7.144;2022-11-20T18:18:45;46.00;;;14.50;;
31732;SDS011;18312;51.486;7.144;2022-11-20T18:21:12;47.05;;;15.60;;
31732;SDS011;18312;51.486;7.144;2022-11-20T18:23:40;49.40;;;15.73;;
31732;SDS011;18312;51.486;7.144;2022-11-20T18:26:09;44.70;;;14.77;;
31732;SDS011;18312;51.486;7.144;2022-11-20T18:28:36;46.42;;;15.18;;